Sign in:
Email
 Password  save:
  
 Company Reports 
 
   
My Recent Searches
  Help
 
   
 
 
Get Institutions for : 
Sigma-Aldrich Corp (SIAL)    
$94.07 0.05 (0.05%) as of 4:30 Thu 4/17


Download
     
Institutional Holders
Viewing Quarter :
  
Total Institutions: 503    12
Total shares held : 
97,693,292  
% of shares held : 
80.08%  
Changes In:
New/increased positions vs   
old/decreased positions : 
  -18  
Amount of shares held : 
-3,002,708  
% of shares held change : 
  -2.46%  
Quarter Price vs. Current Price:
Last Quarter's Starting Price
$85.05  
Last Quarter's Ending Price : 
$94.01  
Last Quarter's Average Price
$86.97  
Change from last quarter's     
avg. price to the last closing  : 
7.10 (8.16%)  




 
All Securities Held :
Positions
     Shares
% Of
Total Shares
New Positions :
35
 1,167,355
 1.19%
 
Increased Positions :
161
 3,216,490
 3.29%
 
Unchanged Positions :
116
 16,467,732
 16.86%
 
Decreased Positions :
191
-2,692,797
-2.76%
 
Closed Positions :
23
-4,693,756
-4.8%
 
Guru Positions :
3
98,489
 0.1%
 
View holdings for period: 
3-31-2012 View holdings for period: 
6-30-2012 View holdings for period: 
9-30-2012 View holdings for period: 
12-31-2012 View holdings for period: 
3-31-2013 View holdings for period: 
6-30-2013 View holdings for period: 
9-30-2013 View holdings for the current period

  Page 1 of 1  
Free Registration Required For Full Results


            Institution Name
Portfolio
Position
New/Closed
Position

Filing Date

Total Shares

Total Value

Change in Shares

File
   STATE FARM MUTUAL AUTOMOBILE INSURANCE CO 16 - 2013-12-31 14,033,160 $1,319,258,000 0
   VANGUARD GROUP INC 275 - 2013-12-31 9,223,002 $867,053,000 270,200
   BANK OF NEW YORK MELLON CORP 107 - 2013-12-31 7,184,806 $675,444,000 59,176
   STATE STREET CORP 308 - 2013-12-31 6,381,843 $599,956,000 113,038
   WELLS FARGO & CO/MN 190 - 2013-12-31 3,188,670 $299,768,000 14,963
   BLACKROCK INSTITUTIONAL TRUST COMPANY 357 - 2013-12-31 3,110,491 $292,417,000 -32,496
   HARDING LOEVNER MANAGEMENT L P/NJ/ 11 - 2013-12-31 3,087,697 $290,274,000 75,543
   INVESCO LTD 217 - 2013-12-31 2,883,461 $271,073,000 110,307
   J P MORGAN CHASE & CO 286 - 2013-12-31 2,683,539 $252,279,000 -220,036
   FMR LLC 574 - 2013-12-31 2,456,910 $230,975,000 -332,053
   YACKTMAN ASSET MANAGEMENT CO/IL 25 - 2013-12-31 2,403,515 $225,954,000 -1,031
   NORTHERN TRUST CORP 335 - 2013-12-31 1,712,287 $160,973,000 -31,649
   BLACKROCK FUND ADVISORS 525 - 2013-12-31 1,608,834 $151,246,000 76,193
   WESTWOOD HOLDINGS GROUP INC 24 - 2013-12-31 1,511,989 $142,142,000 39,830
   CAPITAL RESEARCH GLOBAL INVESTORS 255 - 2013-12-31 1,200,000 $112,812,000 0
   FRANKLIN RESOURCES INC 358 - 2013-12-31 1,117,743 $105,080,000 339
   MARATHON ASSET MANAGEMENT LLP 19 - 2013-12-31 1,035,474 $97,343,000 -143,640
   GEODE CAPITAL MANAGEMENT LLC 324 - 2013-12-31 931,027 $87,502,000 82,086
   FAIRPOINTE CAPITAL LLC 40 - 2013-12-31 926,466 $87,097,000 -39,835
   BLACKROCK GROUP LTD 373 - 2013-12-31 922,064 $86,684,000 83,844
   CAPITAL COUNSEL LLC/NY 10 - 2013-12-31 914,471 $85,969,000 -11,394
   PRICE T ROWE ASSOCIATES INC /MD/ 720 - 2013-12-31 736,512 $69,239,000 -3,915
   BTIM CORP. 24 - 2013-12-31 660,049 $62,051,000 -7,891
   FUNDSMITH LLP 13 - 2013-12-31 443,414 $59,298,000 13,190
   MACKENZIE FINANCIAL CORP 72 - 2013-12-31 612,171 $57,550,000 900
   DEUTSCHE BANK AG 463 - 2013-12-31 565,392 $53,147,000 166,184
   GOLDMAN SACHS GROUP INC/ 738 - 2013-12-31 556,263 $52,294,000 142,386
   TIAA CREF INVESTMENT MANAGEMENT LLC 490 - 2013-12-31 535,456 $50,338,000 54,116
   CITADEL ADVISORS LLC 251 *New 2013-12-31 534,986 $50,294,000 534,986
   BANK OF AMERICA CORP /DE/ 612 - 2013-12-31 521,389 $49,016,000 1,192
   LEGAL & GENERAL GROUP PLC 367 - 2013-12-31 519,544 $48,842,000 -1,000
   NEUBERGER BERMAN GROUP LLC 433 - 2013-12-31 517,609 $48,661,000 -2,476
   BLACKROCK INC. 266 - 2013-12-31 499,904 $46,996,000 74,460
   GENEVA CAPITAL MANAGEMENT LTD/WI 49 - 2013-12-31 473,988 $44,560,000 -6,903
   EQUITY INVESTMENT CORP/GA 33 - 2013-12-31 428,986 $40,329,000 -19,402
   ABSOLUTE RETURN CAPITAL, LLC 68 - 2013-12-31 396,200 $37,247,000 35,958
   AMERICAN CENTURY COMPANIES INC 410 *New 2013-12-31 387,742 $36,452,000 387,742
   BLACKROCK ADVISORS LLC 387 - 2013-12-31 387,370 $36,417,000 385,948
   UBS GLOBAL ASSET MANAGEMENT AMERICAS INC 433 - 2013-12-31 386,643 $36,348,000 28,556
   CREDIT SUISSE/ 472 - 2013-12-31 383,049 $36,011,000 61,684
   ROYAL BANK OF CANADA 423 - 2013-12-31 351,733 $33,066,000 33,761
   NEW YORK STATE COMMON RETIREMENT FUND 414 - 2013-12-31 345,056 $32,439,000 -14,100
   CALIFORNIA PUBLIC EMPLOYEES RETIREMENT SYSTEM 446 - 2013-12-31 312,051 $28,762,000 16,580
   SUMITOMO MITSUI TRUST HOLDINGS, INC. 370 - 2013-12-31 305,478 $28,715,000 -12,163
   MORGAN STANLEY 1160 - 2013-12-31 268,800 $25,270,000 -37,893
   ALLIANCEBERNSTEIN L.P. 620 - 2013-12-31 254,604 $23,935,000 28,750
   SCHWAB CHARLES INVESTMENT MANAGEMENT INC 390 - 2013-12-31 248,419 $23,354,000 5,771
   NATIONWIDE FUND ADVISORS 237 - 2013-12-31 247,097 $23,230,000 -3,148
   HORIZON KINETICS LLC 44 - 2013-12-31 246,858 $23,207,000 -29,362
   DAVIS SELECTED ADVISERS 71 - 2013-12-31 239,465 $22,512,000 -9,799
   GUGGENHEIM CAPITAL LLC 514 - 2013-12-31 238,992 $22,467,000 39,272
   STACK FINANCIAL MANAGEMENT INC 7 - 2013-12-31 233,449 $21,947,000 3,297
   NEW YORK STATE TEACHERS RETIREMENT SYSTEM - 2013-12-31 227,098 $21,349,000 -10,063
   BNP Paribas Investment Partners S.A. 158 - 2013-12-31 219,298 $20,616,000 -16,927
   BLACKROCK INVESTMENT MANAGEMENT LLC 499 - 2013-12-31 217,973 $20,492,000 -764
   CALIFORNIA STATE TEACHERS RETIREMENT SYSTEM 338 - 2013-12-31 217,888 $20,484,000 1,500
   CHAMPLAIN INVESTMENT PARTNERS LLC 109 - 2013-12-31 208,800 $19,629,000 975
   BNP PARIBAS ARBITRAGE SA 207 - 2013-12-31 207,642 $19,520,000 -582
   CLIFFORD ASSOCIATES LLC 23 - 2013-12-31 207,199 $19,479,000 -2,422
   EUCLID ADVISORS LLC 137 - 2013-12-31 207,171 $19,476,000 -3,745
   RENAISSANCE TECHNOLOGIES LLC 478 - 2013-12-31 206,600 $19,422,000 -135,832
   STATE BOARD OF ADMINISTRATION OF FLORIDA RETIREMEN 351 - 2013-12-31 197,669 $18,583,000 -4,666
   CHEVY CHASE TRUST HOLDINGS, INC. 180 - 2013-12-31 196,567 $18,479,000 15,246
   RHUMBLINE ADVISERS 327 - 2013-12-31 191,348 $17,989,000 -15,050
   MCDANIEL TERRY & CO 4 - 2013-12-31 185,142 $17,405,000 6,655
   PRUDENTIAL FINANCIAL INC 522 - 2013-12-31 179,897 $16,912,000 -5,250
   State of Tennessee Treasury Department 199 - 2013-12-31 177,700 $16,705,000 156,300
   SAWGRASS ASSET MANAGEMENT LLC 39 - 2013-12-31 168,396 $15,831,000 47,163
   PRINCIPAL FINANCIAL GROUP INC 613 - 2013-12-31 168,381 $15,829,000 51
   COMPASS CAPITAL MANAGEMENT INC/ 16 - 2013-12-31 167,409 $15,738,000 3,728
   EATON VANCE MANAGEMENT 253 - 2013-12-31 167,158 $15,715,000 -18,025
   DIMENSIONAL FUND ADVISORS INC 1788 - 2013-12-31 165,008 $15,512,000 5,992
   TEACHERS ADVISORS INC 652 - 2013-12-31 157,121 $14,771,000 9,797
   US BANCORP 242 - 2013-12-31 157,056 $14,765,000 6,189
   REIK & CO. LLC 6 - 2013-12-31 154,608 $14,535,000 -1,046
   PUBLIC EMPLOYEES RETIREMENT ASSOCIATION OF COLORAD 185 - 2013-12-31 152,702 $14,356,000 -2,518
   MIZUHO TRUST & BANKING CO., LTD. 386 - 2013-12-31 152,831 $14,263,000 -18,205
   MANAGED ACCOUNT ADVISORS LLC 787 - 2013-12-31 150,201 $14,121,000 -8,854
   Winton Capital Management Ltd 274 - 2013-12-31 144,684 $13,602,000 -85,379
   SCHRODER INVESTMENT MANAGEMENT GROUP 545 - 2013-12-31 141,500 $13,302,000 -40,400
   GLENMEDE TRUST CO NA 126 - 2013-12-31 138,703 $13,038,000 -11,388
   SG AMERICAS SECURITIES LLC 341 - 2013-12-31 137,482 $12,925,000 -12,628
   BLACKROCK JAPAN CO LTD 383 - 2013-12-31 136,436 $12,826,000 -2,866
   CONGRESS ASSET MANAGEMENT CO /MA 64 - 2013-12-31 136,303 $12,814,000 -27,050
   EULAV ASSET MANAGEMENT 34 - 2013-12-31 135,700 $12,757,000 -1,000
   CONFLUENCE INVESTMENT MANAGEMENT LLC 45 - 2013-12-31 135,090 $12,700,000 6,335
   SHELL ASSET MANAGEMENT CO 93 - 2013-12-31 131,678 $12,379,000 80,281
   NICHOLS & PRATT ADVISERS LLP /MA 32 - 2013-12-31 129,201 $12,146,000 225
   Swiss National Bank 387 - 2013-12-31 127,646 $12,000,000 -2,600
   APG ALL PENSIONS GROUP 429 - 2013-12-31 127,330 $11,970,000 -2,930
   PROFESSIONAL ADVISORY SERVICES INC 18 - 2013-12-31 126,427 $11,885,000 -1,186
   SCOTIA CAPITAL INC. 62 - 2013-12-31 123,850 $11,643,000 -1,330
   GRANTHAM MAYO VAN OTTERLOO & CO LLC 199 - 2013-12-31 121,936 $11,463,000 -3,319
   GAM HOLDING LTD. 128 - 2013-12-31 121,580 $11,431,000 0
   PARAMETRIC PORTFOLIO ASSOCIATES 647 - 2013-12-31 121,253 $11,399,000 4,603
   MANNING & NAPIER ADVISORS INC 135 - 2013-12-31 121,060 $11,380,000 -2,030
   EDGE ASSET MANAGEMENT INC 181 - 2013-12-31 120,111 $11,292,000 0
   NORTHERN TRUST CO OF CONNECTICUT 412 - 2013-12-31 119,057 $11,193,000 -5,329
   SHAYNE & CO., LLC 4 - 2013-12-31 118,322 $11,123,000 -12,808
   CITIGROUP INC 523 - 2013-12-31 118,057 $11,099,000 9,151

  100 Records found
  1    
  Page 1 of 1
Free Registration Required For Full Results